createdAt,value
2018-11-14T00:01:01.890Z,30.33
2018-11-14T00:03:29.731Z,29.70
2018-11-14T00:05:57.552Z,33.10
2018-11-14T00:08:26.001Z,27.93
2018-11-14T00:10:53.842Z,30.63
2018-11-14T00:13:21.682Z,32.07
2018-11-14T00:15:49.515Z,32.97
2018-11-14T00:18:17.368Z,30.03
2018-11-14T00:20:45.199Z,27.63
2018-11-14T00:23:13.505Z,27.97
2018-11-14T00:25:41.608Z,26.40
2018-11-14T00:28:09.711Z,30.47
2018-11-14T00:30:37.592Z,26.57
2018-11-14T00:33:05.794Z,27.27
2018-11-14T00:35:33.710Z,33.07
2018-11-14T00:38:01.702Z,32.07
2018-11-14T00:40:29.568Z,28.13
2018-11-14T00:42:57.499Z,36.93
2018-11-14T00:45:25.375Z,27.53
2018-11-14T00:47:53.264Z,28.00
2018-11-14T00:50:21.616Z,25.43
2018-11-14T00:52:49.507Z,25.67
2018-11-14T00:55:19.443Z,26.27
2018-11-14T00:57:48.508Z,22.07
2018-11-14T01:00:18.031Z,22.50
2018-11-14T01:02:46.170Z,23.70
2018-11-14T01:05:15.215Z,27.30
2018-11-14T01:07:43.103Z,24.63
2018-11-14T01:10:12.174Z,27.00
2018-11-14T01:12:40.347Z,27.23
2018-11-14T01:15:09.632Z,25.73
2018-11-14T01:17:37.875Z,30.50
2018-11-14T01:20:06.251Z,28.17
2018-11-14T01:22:34.075Z,33.17
2018-11-14T01:25:01.912Z,31.80
2018-11-14T01:27:29.763Z,33.00
2018-11-14T01:29:57.613Z,24.83
2018-11-14T01:32:25.451Z,24.53
2018-11-14T01:34:53.298Z,24.87
2018-11-14T01:37:21.599Z,17.90
2018-11-14T01:39:49.424Z,19.93
2018-11-14T01:42:17.250Z,21.70
2018-11-14T01:44:45.107Z,17.47
2018-11-14T01:47:12.950Z,16.63
2018-11-14T01:49:40.763Z,17.30
2018-11-14T01:52:08.592Z,19.30
2018-11-14T01:54:36.427Z,17.93
2018-11-14T01:57:04.275Z,14.57
2018-11-14T01:59:32.101Z,14.90
2018-11-14T02:01:59.943Z,15.97
2018-11-14T02:04:27.762Z,17.13
2018-11-14T02:06:55.599Z,17.73
2018-11-14T02:09:24.032Z,17.27
2018-11-14T02:11:51.871Z,19.47
2018-11-14T02:14:19.695Z,18.77
2018-11-14T02:16:47.526Z,25.57
2018-11-14T02:19:15.369Z,21.10
2018-11-14T02:21:43.206Z,19.97
2018-11-14T02:24:11.050Z,22.17
2018-11-14T02:26:38.912Z,20.93
2018-11-14T02:29:06.754Z,22.23
2018-11-14T02:31:34.583Z,21.73
2018-11-14T02:34:02.456Z,24.03
2018-11-14T02:36:30.297Z,19.20
2018-11-14T02:38:58.140Z,23.80
2018-11-14T02:41:26.031Z,25.90
2018-11-14T02:43:53.905Z,18.67
2018-11-14T02:46:21.771Z,20.77
2018-11-14T02:48:49.775Z,21.77
2018-11-14T02:51:23.063Z,25.00
2018-11-14T02:53:50.887Z,21.40
2018-11-14T02:56:18.718Z,20.20
2018-11-14T02:58:46.554Z,18.63
2018-11-14T03:01:14.373Z,20.83
2018-11-14T03:03:42.250Z,17.73
2018-11-14T03:06:10.097Z,18.07
2018-11-14T03:08:38.316Z,17.33
2018-11-14T03:11:06.874Z,17.47
2018-11-14T03:13:34.770Z,15.50
2018-11-14T03:16:02.639Z,18.10
2018-11-14T03:18:30.472Z,14.93
2018-11-14T03:20:58.306Z,14.50
2018-11-14T03:23:26.222Z,14.70
2018-11-14T03:25:54.036Z,16.93
2018-11-14T03:28:21.866Z,14.20
2018-11-14T03:30:49.687Z,16.57
2018-11-14T03:33:17.532Z,14.73
2018-11-14T03:35:50.636Z,13.37
2018-11-14T03:38:18.470Z,14.27
2018-11-14T03:40:46.372Z,12.83
2018-11-14T03:43:14.230Z,16.50
2018-11-14T03:45:42.776Z,15.53
2018-11-14T03:48:10.625Z,15.93
2018-11-14T03:50:38.447Z,16.43
2018-11-14T03:53:06.419Z,19.07
2018-11-14T03:55:34.450Z,18.13
2018-11-14T03:58:03.004Z,20.70
2018-11-14T04:00:31.651Z,21.90
2018-11-14T04:03:00.070Z,23.33
2018-11-14T04:05:27.967Z,20.07
2018-11-14T04:07:56.487Z,19.63
2018-11-14T04:10:25.008Z,20.40
2018-11-14T04:12:52.840Z,18.93
2018-11-14T04:15:21.307Z,17.17
2018-11-14T04:17:49.782Z,12.93
2018-11-14T04:20:18.442Z,13.70
2018-11-14T04:22:47.032Z,11.90
2018-11-14T04:25:17.875Z,12.87
2018-11-14T04:27:46.519Z,10.43
2018-11-14T04:30:15.660Z,11.83
2018-11-14T04:32:44.587Z,10.70
2018-11-14T04:35:13.603Z,9.90
2018-11-14T04:37:41.428Z,8.60
2018-11-14T04:40:11.247Z,9.27
2018-11-14T04:42:39.429Z,8.50
2018-11-14T04:45:08.181Z,9.47
2018-11-14T04:47:36.392Z,9.00
2018-11-14T04:50:04.637Z,9.63
2018-11-14T04:52:32.479Z,8.97
2018-11-14T04:55:00.310Z,9.00
2018-11-14T04:57:28.155Z,7.87
2018-11-14T04:59:55.990Z,7.73
2018-11-14T05:02:24.202Z,11.80
2018-11-14T05:04:52.647Z,7.83
2018-11-14T05:07:21.278Z,9.57
2018-11-14T05:09:49.118Z,8.23
2018-11-14T05:12:16.968Z,9.53
2018-11-14T05:14:44.892Z,7.17
2018-11-14T05:17:12.729Z,7.43
2018-11-14T05:19:40.783Z,7.23
2018-11-14T05:22:08.751Z,7.47
2018-11-14T05:24:36.794Z,8.10
2018-11-14T05:27:04.709Z,7.23
2018-11-14T05:29:32.535Z,11.27
2018-11-14T05:32:00.455Z,8.60
2018-11-14T05:34:28.261Z,8.17
2018-11-14T05:36:56.338Z,13.13
2018-11-14T05:39:24.186Z,8.83
2018-11-14T05:41:52.016Z,7.97
2018-11-14T05:44:19.942Z,10.07
2018-11-14T05:46:47.961Z,7.43
2018-11-14T05:49:16.531Z,13.47
2018-11-14T05:51:44.952Z,10.50
2018-11-14T05:54:13.623Z,8.10
2018-11-14T05:56:42.228Z,10.67
2018-11-14T05:59:10.636Z,10.17
2018-11-14T06:01:38.466Z,10.53
2018-11-14T06:04:07.021Z,9.93
2018-11-14T06:06:34.852Z,10.37
2018-11-14T06:09:03.365Z,9.30
2018-11-14T06:11:31.192Z,12.73
2018-11-14T06:13:59.037Z,9.03
2018-11-14T06:16:26.878Z,13.83
2018-11-14T06:18:54.699Z,8.90
2018-11-14T06:21:22.533Z,15.43
2018-11-14T06:23:50.391Z,10.07
2018-11-14T06:26:18.477Z,12.70
2018-11-14T06:28:46.317Z,9.80
2018-11-14T06:31:14.151Z,10.50
2018-11-14T06:33:42.745Z,10.53
2018-11-14T06:36:11.320Z,11.73
2018-11-14T06:38:39.792Z,9.37
2018-11-14T06:41:08.451Z,12.57
2018-11-14T06:43:36.679Z,12.03
2018-11-14T06:46:05.120Z,11.73
2018-11-14T06:48:33.756Z,12.10
2018-11-14T06:51:02.389Z,12.13
2018-11-14T06:53:30.832Z,13.70
2018-11-14T06:55:59.525Z,12.23
2018-11-14T06:58:27.915Z,12.53
2018-11-14T07:00:55.752Z,12.50
2018-11-14T07:03:23.820Z,14.40
2018-11-14T07:05:51.856Z,13.17
2018-11-14T07:08:19.774Z,9.93
2018-11-14T07:10:47.609Z,14.07
2018-11-14T07:13:15.443Z,13.13
2018-11-14T07:15:43.637Z,15.20
2018-11-14T07:18:12.255Z,11.47
2018-11-14T07:20:42.577Z,11.53
2018-11-14T07:23:10.434Z,13.57
2018-11-14T07:25:38.287Z,11.43
2018-11-14T07:28:06.153Z,14.33
2018-11-14T07:30:34.843Z,10.33
2018-11-14T07:33:04.073Z,19.93
2018-11-14T07:35:31.903Z,13.70
2018-11-14T07:38:34.283Z,14.43
2018-11-14T07:41:03.520Z,10.70
2018-11-14T07:43:31.776Z,12.77
2018-11-14T07:45:59.619Z,16.33
2018-11-14T07:48:27.463Z,11.73
2018-11-14T07:50:55.308Z,12.83
2018-11-14T07:53:23.218Z,14.13
2018-11-14T07:55:51.106Z,13.30
2018-11-14T07:58:18.936Z,14.40
2018-11-14T08:00:46.822Z,15.90
2018-11-14T08:03:14.681Z,16.17
2018-11-14T08:05:42.530Z,12.53
2018-11-14T08:08:10.427Z,14.33
2018-11-14T08:10:38.253Z,12.67
2018-11-14T08:13:06.196Z,11.93
2018-11-14T08:15:34.054Z,10.07
2018-11-14T08:18:01.900Z,17.63
2018-11-14T08:20:29.743Z,11.97
2018-11-14T08:22:57.628Z,14.20
2018-11-14T08:25:31.892Z,13.50
2018-11-14T08:27:59.755Z,16.07
2018-11-14T08:30:28.366Z,15.37
2018-11-14T08:32:56.648Z,11.50
2018-11-14T08:35:24.479Z,24.53
2018-11-14T08:37:52.403Z,16.03
2018-11-14T08:40:20.231Z,12.73
2018-11-14T08:42:48.065Z,18.20
2018-11-14T08:45:15.896Z,16.80
2018-11-14T08:47:43.751Z,14.13
2018-11-14T08:50:13.573Z,14.70
2018-11-14T08:52:42.183Z,14.60
2018-11-14T08:55:11.031Z,12.37
2018-11-14T08:57:39.837Z,17.13
2018-11-14T09:00:09.795Z,13.67
2018-11-14T09:02:37.647Z,16.03
2018-11-14T09:05:06.149Z,13.43
2018-11-14T09:07:34.733Z,14.63
2018-11-14T09:10:03.332Z,15.17
2018-11-14T09:12:32.063Z,12.73
2018-11-14T09:15:00.792Z,16.87
2018-11-14T09:17:29.447Z,17.80
2018-11-14T09:19:58.083Z,12.80
2018-11-14T09:22:26.192Z,16.60
2018-11-14T09:24:54.065Z,20.70
2018-11-14T09:27:22.625Z,12.83
2018-11-14T09:29:51.044Z,12.17
2018-11-14T09:32:19.686Z,13.07
2018-11-14T09:34:48.352Z,13.37
2018-11-14T09:37:16.784Z,12.17
2018-11-14T09:39:45.400Z,13.93
2018-11-14T09:42:14.035Z,13.97
2018-11-14T09:44:42.680Z,16.47
2018-11-14T09:47:11.327Z,17.83
2018-11-14T09:49:39.952Z,18.33
2018-11-14T09:52:08.406Z,15.20
2018-11-14T09:54:36.440Z,17.40
2018-11-14T09:57:04.374Z,23.40
2018-11-14T09:59:32.183Z,20.43
2018-11-14T10:02:00.532Z,13.57
2018-11-14T10:04:28.364Z,15.00
2018-11-14T10:06:56.234Z,15.10
2018-11-14T10:09:24.114Z,13.17
2018-11-14T10:11:52.761Z,14.50
2018-11-14T10:14:21.428Z,16.73
2018-11-14T10:16:49.538Z,15.03
2018-11-14T10:19:17.400Z,12.83
2018-11-14T10:21:45.239Z,14.33
2018-11-14T10:24:13.778Z,19.17
2018-11-14T10:26:41.618Z,17.50
2018-11-14T10:29:10.070Z,15.67
2018-11-14T10:31:38.771Z,15.33
2018-11-14T10:34:07.187Z,21.60
2018-11-14T10:36:35.563Z,14.97
2018-11-14T10:39:04.722Z,21.33
2018-11-14T10:41:32.625Z,14.90
2018-11-14T10:44:00.473Z,17.87
2018-11-14T10:46:28.302Z,16.07
2018-11-14T10:48:56.142Z,19.90
2018-11-14T10:51:23.994Z,17.07
2018-11-14T10:53:52.532Z,21.73
2018-11-14T10:56:20.431Z,18.20
2018-11-14T10:58:48.377Z,15.43
2018-11-14T11:01:21.542Z,16.73
2018-11-14T11:03:54.957Z,19.03
2018-11-14T11:06:35.252Z,15.60
2018-11-14T11:09:09.036Z,20.30
2018-11-14T11:11:42.517Z,18.27
2018-11-14T11:14:15.424Z,18.60
2018-11-14T11:16:48.835Z,19.20
2018-11-14T11:19:18.431Z,17.37
2018-11-14T11:21:47.153Z,26.30
2018-11-14T11:24:16.627Z,20.20
2018-11-14T11:26:45.104Z,20.70
2018-11-14T11:29:13.511Z,19.60
2018-11-14T11:31:41.401Z,18.87
2018-11-14T11:34:10.096Z,19.30
2018-11-14T11:36:38.472Z,18.80
2018-11-14T11:39:09.868Z,20.83
2018-11-14T11:41:38.286Z,22.53
2018-11-14T11:44:06.643Z,23.67
2018-11-14T11:46:34.715Z,16.20
2018-11-14T11:49:02.603Z,18.90
2018-11-14T11:51:30.544Z,26.03
2018-11-14T11:53:58.806Z,19.80
2018-11-14T11:56:26.665Z,21.37
2018-11-14T11:58:55.279Z,21.30
2018-11-14T12:01:23.852Z,20.10
2018-11-14T12:03:52.496Z,26.10
2018-11-14T12:06:20.901Z,28.00
2018-11-14T12:08:48.773Z,24.77
2018-11-14T12:11:16.689Z,24.33
2018-11-14T12:13:45.310Z,25.03
2018-11-14T12:16:13.220Z,26.13
2018-11-14T12:18:41.766Z,23.60
2018-11-14T12:21:10.376Z,22.70
2018-11-14T12:23:39.068Z,20.07
2018-11-14T12:26:06.974Z,22.27
2018-11-14T12:28:34.840Z,20.20
2018-11-14T12:31:02.880Z,20.47
2018-11-14T12:33:30.631Z,21.83
2018-11-14T12:35:58.503Z,21.53
2018-11-14T12:38:26.396Z,20.60
2018-11-14T12:40:54.248Z,23.43
2018-11-14T12:43:22.100Z,22.77
2018-11-14T12:45:49.971Z,19.83
2018-11-14T12:48:19.342Z,19.33
2018-11-14T12:50:47.345Z,20.00
2018-11-14T12:53:15.194Z,18.97
2018-11-14T12:55:43.103Z,19.33
2018-11-14T12:58:10.988Z,19.87
2018-11-14T13:00:38.836Z,21.37
2018-11-14T13:03:06.683Z,22.40
2018-11-14T13:05:34.750Z,20.60
2018-11-14T13:08:02.609Z,16.70
2018-11-14T13:10:30.467Z,18.07
2018-11-14T13:12:58.326Z,17.33
2018-11-14T13:15:26.191Z,18.83
2018-11-14T13:17:54.068Z,21.47
2018-11-14T13:20:23.347Z,20.13
2018-11-14T13:22:51.239Z,20.10
2018-11-14T13:25:19.133Z,18.10
2018-11-14T13:27:47.910Z,16.50
2018-11-14T13:30:17.034Z,18.73
2018-11-14T13:32:46.002Z,17.17
2018-11-14T13:35:15.495Z,19.17
2018-11-14T13:37:44.765Z,15.63
2018-11-14T13:40:13.550Z,19.73
2018-11-14T13:42:42.190Z,21.30
2018-11-14T13:45:11.744Z,17.03
2018-11-14T13:47:40.543Z,17.53
2018-11-14T13:50:10.544Z,19.20
2018-11-14T13:52:38.683Z,20.43
2018-11-14T13:55:07.135Z,18.53
2018-11-14T13:57:35.038Z,20.23
2018-11-14T14:00:03.023Z,14.07
2018-11-14T14:02:30.899Z,18.27
2018-11-14T14:04:58.753Z,16.87
2018-11-14T14:07:26.580Z,17.57
2018-11-14T14:09:54.433Z,16.27
2018-11-14T14:12:22.286Z,16.33
2018-11-14T14:14:50.293Z,17.87
2018-11-14T14:17:18.159Z,18.60
2018-11-14T14:19:46.028Z,16.20
2018-11-14T14:22:13.894Z,23.33
2018-11-14T14:24:42.131Z,22.70
2018-11-14T14:27:10.013Z,19.37
2018-11-14T14:29:37.968Z,19.33
2018-11-14T14:32:05.904Z,17.50
2018-11-14T14:34:33.776Z,19.20
2018-11-14T14:37:01.609Z,20.23
2018-11-14T14:39:29.471Z,19.03
2018-11-14T14:41:57.318Z,17.50
2018-11-14T14:44:25.147Z,15.03
2018-11-14T14:46:53.075Z,16.10
2018-11-14T14:49:20.920Z,15.30
2018-11-14T14:51:48.808Z,15.63
2018-11-14T14:54:16.676Z,19.63
2018-11-14T14:56:44.537Z,16.07
2018-11-14T14:59:12.417Z,18.60
2018-11-14T15:01:40.271Z,16.37
2018-11-14T15:04:08.204Z,18.80
2018-11-14T15:06:36.044Z,21.53
2018-11-14T15:09:04.823Z,15.03
2018-11-14T15:11:32.680Z,19.10
2018-11-14T15:14:00.659Z,17.13
2018-11-14T15:16:28.551Z,16.43
2018-11-14T15:18:56.548Z,19.03
2018-11-14T15:21:24.392Z,17.60
2018-11-14T15:23:52.236Z,16.97
2018-11-14T15:26:20.135Z,17.97
2018-11-14T15:28:48.154Z,19.33
2018-11-14T15:31:16.005Z,17.90
2018-11-14T15:33:43.891Z,17.67
2018-11-14T15:36:11.861Z,20.60
2018-11-14T15:38:40.179Z,17.87
2018-11-14T15:41:08.460Z,18.07
2018-11-14T15:43:36.329Z,19.17
2018-11-14T15:46:04.984Z,19.80
2018-11-14T15:48:33.571Z,17.77
2018-11-14T15:51:02.240Z,25.43
2018-11-14T15:53:30.619Z,19.60
2018-11-14T15:55:58.853Z,21.50
2018-11-14T15:58:27.373Z,22.57
2018-11-14T16:00:56.001Z,18.67
2018-11-14T16:03:24.596Z,21.60
2018-11-14T16:05:52.813Z,19.83
2018-11-14T16:08:21.302Z,17.80
2018-11-14T16:10:49.933Z,23.93
2018-11-14T16:13:18.355Z,23.37
2018-11-14T16:15:47.042Z,19.87
2018-11-14T16:18:15.681Z,21.50
2018-11-14T16:20:44.121Z,25.60
2018-11-14T16:23:12.723Z,25.27
2018-11-14T16:25:41.375Z,23.93
2018-11-14T16:28:10.002Z,21.03
2018-11-14T16:30:38.799Z,21.20
2018-11-14T16:33:08.859Z,25.30
2018-11-14T16:35:37.592Z,22.23
2018-11-14T16:38:05.959Z,18.10
2018-11-14T16:40:38.141Z,17.77
2018-11-14T16:43:07.568Z,22.70
2018-11-14T16:45:36.163Z,22.67
2018-11-14T16:48:04.594Z,22.83
2018-11-14T16:50:33.317Z,20.97
2018-11-14T16:53:01.972Z,18.33
2018-11-14T16:55:30.700Z,25.67
2018-11-14T16:57:59.159Z,22.20
2018-11-14T17:00:28.741Z,23.03
2018-11-14T17:02:57.763Z,24.70
2018-11-14T17:05:27.376Z,19.50
2018-11-14T17:07:55.210Z,19.10
2018-11-14T17:10:23.490Z,19.90
2018-11-14T17:12:52.952Z,22.40
2018-11-14T17:15:22.869Z,21.77
2018-11-14T17:17:50.722Z,23.87
2018-11-14T17:20:19.338Z,23.70
2018-11-14T17:22:48.336Z,23.67
2018-11-14T17:25:17.196Z,23.20
2018-11-14T17:27:45.902Z,22.10
2018-11-14T17:30:15.564Z,28.97
2018-11-14T17:32:44.261Z,23.40
2018-11-14T17:35:13.303Z,26.17
2018-11-14T17:37:42.542Z,25.27
2018-11-14T17:40:13.604Z,25.30
2018-11-14T17:42:42.790Z,22.80
2018-11-14T17:45:12.055Z,22.90
2018-11-14T17:47:39.972Z,22.80
2018-11-14T17:50:12.514Z,26.57
2018-11-14T17:52:40.719Z,24.93
2018-11-14T17:55:09.996Z,25.47
2018-11-14T17:57:38.401Z,23.27
2018-11-14T18:00:07.338Z,27.60
2018-11-14T18:02:35.644Z,26.17
2018-11-14T18:05:04.156Z,27.57
2018-11-14T18:07:32.759Z,24.73
2018-11-14T18:10:00.676Z,24.70
2018-11-14T18:12:28.793Z,21.63
2018-11-14T18:14:56.641Z,20.53
2018-11-14T18:17:24.488Z,28.50
2018-11-14T18:19:52.332Z,26.93
2018-11-14T18:22:20.185Z,25.67
2018-11-14T18:24:48.100Z,23.03
2018-11-14T18:27:16.546Z,20.10
2018-11-14T18:29:45.012Z,23.03
2018-11-14T18:32:12.975Z,25.53
2018-11-14T18:34:41.632Z,21.13
2018-11-14T18:37:10.073Z,32.53
2018-11-14T18:39:39.013Z,30.83
2018-11-14T18:42:07.383Z,24.07
2018-11-14T18:44:35.784Z,26.20
2018-11-14T18:47:03.627Z,30.67
2018-11-14T18:49:31.468Z,29.97
2018-11-14T18:52:00.319Z,24.83
2018-11-14T18:54:28.167Z,23.33
2018-11-14T18:56:56.035Z,23.87
2018-11-14T18:59:23.896Z,27.47
2018-11-14T19:01:52.023Z,25.43
2018-11-14T19:04:20.383Z,30.77
2018-11-14T19:06:48.314Z,27.00
2018-11-14T19:09:16.127Z,26.13
2018-11-14T19:11:43.963Z,26.83
2018-11-14T19:14:11.862Z,26.07
2018-11-14T19:16:39.700Z,23.70
2018-11-14T19:19:07.639Z,21.60
2018-11-14T19:21:36.595Z,28.67
2018-11-14T19:24:04.455Z,24.43
2018-11-14T19:26:32.291Z,29.13
2018-11-14T19:29:00.143Z,24.87
2018-11-14T19:31:28.711Z,26.47
2018-11-14T19:33:56.554Z,26.33
2018-11-14T19:36:24.405Z,27.00
2018-11-14T19:38:52.257Z,23.67
2018-11-14T19:41:20.101Z,26.53
2018-11-14T19:43:47.958Z,27.60
2018-11-14T19:46:15.948Z,24.40
2018-11-14T19:48:43.879Z,27.93
2018-11-14T19:51:12.105Z,25.70
2018-11-14T19:53:40.043Z,27.63
2018-11-14T19:56:07.899Z,34.60
2018-11-14T19:58:35.744Z,27.30
2018-11-14T20:01:03.937Z,26.03
2018-11-14T20:03:31.795Z,28.20
2018-11-14T20:05:59.631Z,26.73
2018-11-14T20:08:27.481Z,29.10
2018-11-14T20:10:55.338Z,31.53
2018-11-14T20:13:24.506Z,28.57
2018-11-14T20:15:53.151Z,33.93
2018-11-14T20:18:21.471Z,34.23
2018-11-14T20:20:50.542Z,26.90
2018-11-14T20:23:20.351Z,29.20
2018-11-14T20:25:49.170Z,31.40
2018-11-14T20:28:17.748Z,32.03
2018-11-14T20:30:45.609Z,31.80
2018-11-14T20:33:14.181Z,34.67
2018-11-14T20:35:42.194Z,34.87
2018-11-14T20:38:10.474Z,37.43
2018-11-14T20:40:39.553Z,35.13
2018-11-14T20:43:08.429Z,33.43
2018-11-14T20:45:36.991Z,34.47
2018-11-14T20:48:05.305Z,33.17
2018-11-14T20:50:33.912Z,30.90
2018-11-14T20:53:03.586Z,27.77
2018-11-14T20:55:32.911Z,33.50
2018-11-14T20:58:01.818Z,32.67
2018-11-14T21:00:35.855Z,33.07
2018-11-14T21:03:03.815Z,31.50
2018-11-14T21:05:33.758Z,29.60
2018-11-14T21:08:02.082Z,29.57
2018-11-14T21:10:31.445Z,30.03
2018-11-14T21:13:00.545Z,28.93
2018-11-14T21:15:30.052Z,29.47
2018-11-14T21:17:58.977Z,30.07
2018-11-14T21:20:26.851Z,32.57
2018-11-14T21:22:54.882Z,34.60
2018-11-14T21:25:24.344Z,31.03
2018-11-14T21:27:53.395Z,30.83
2018-11-14T21:30:22.811Z,31.40
2018-11-14T21:32:51.310Z,31.73
2018-11-14T21:35:23.704Z,29.43
2018-11-14T21:37:53.580Z,31.07
2018-11-14T21:40:21.427Z,32.23
2018-11-14T21:42:49.335Z,30.70
2018-11-14T21:45:19.332Z,37.13
2018-11-14T21:47:52.537Z,34.93
2018-11-14T21:50:21.925Z,37.80
2018-11-14T21:52:50.432Z,29.87
2018-11-14T21:55:18.834Z,33.73
2018-11-14T21:57:47.303Z,34.90
2018-11-14T22:00:17.538Z,31.23
2018-11-14T22:02:47.362Z,36.57
2018-11-14T22:05:15.972Z,34.27
2018-11-14T22:07:44.607Z,32.63
2018-11-14T22:10:14.399Z,37.57
2018-11-14T22:12:43.456Z,36.50
2018-11-14T22:15:11.810Z,33.70
2018-11-14T22:17:40.220Z,35.27
2018-11-14T22:20:09.351Z,33.70
2018-11-14T22:22:37.241Z,33.90
2018-11-14T22:25:05.185Z,34.97
2018-11-14T22:27:33.529Z,33.17
2018-11-14T22:30:01.402Z,30.00
2018-11-14T22:32:29.364Z,34.40
2018-11-14T22:34:58.367Z,37.57
2018-11-14T22:37:26.089Z,32.77
2018-11-14T22:39:54.032Z,37.27
2018-11-14T22:42:22.848Z,33.83
2018-11-14T22:44:51.171Z,36.60
2018-11-14T22:47:19.829Z,32.70
2018-11-14T22:49:48.860Z,37.93
2018-11-14T22:52:16.756Z,33.27
2018-11-14T22:54:45.352Z,32.87
2018-11-14T22:57:13.205Z,35.23
2018-11-14T22:59:41.333Z,34.53
2018-11-14T23:02:09.861Z,31.53
2018-11-14T23:04:38.093Z,31.57
2018-11-14T23:07:06.464Z,33.50
2018-11-14T23:09:35.137Z,29.17
2018-11-14T23:12:03.669Z,30.77
2018-11-14T23:14:32.059Z,32.87
2018-11-14T23:17:00.528Z,30.47
2018-11-14T23:19:29.136Z,34.80
2018-11-14T23:21:57.263Z,30.67
2018-11-14T23:24:25.115Z,34.23
2018-11-14T23:26:53.177Z,28.47
2018-11-14T23:29:21.016Z,30.50
2018-11-14T23:31:48.891Z,34.77
2018-11-14T23:34:16.743Z,30.73
2018-11-14T23:36:44.583Z,34.20
2018-11-14T23:39:14.016Z,29.67
2018-11-14T23:41:41.850Z,29.27
2018-11-14T23:44:10.607Z,31.00
2018-11-14T23:46:38.435Z,30.47
2018-11-14T23:49:07.072Z,29.13
2018-11-14T23:51:35.536Z,29.20
2018-11-14T23:54:04.171Z,29.73
2018-11-14T23:56:32.579Z,29.37
2018-11-14T23:59:00.406Z,29.47
